Time;durP1;ratioP1;P1;durP2;ratioP2;P2;SDS_P1;SDS_P2;PMS_P1;PMS_P2;Temp;Humidity;BMP_temperature;BMP_pressure;BME280_temperature;BME280_humidity;BME280_pressure;Samples;Min_cycle;Max_cycle;Signal;HPM_P1;HPM_P2
2022/01/18 00:02:25;;;;;;;4.20;2.10;;;0.80;99.90;;;;;;5073327;28;20212;-61
2022/01/18 00:04:52;;;;;;;4.57;2.47;;;0.80;99.90;;;;;;5072972;28;20201;-64
2022/01/18 00:07:19;;;;;;;4.17;2.23;;;0.80;99.90;;;;;;5073717;28;20679;-65
2022/01/18 00:09:48;;;;;;;2.47;2.10;;;0.80;99.90;;;;;;5073379;28;20193;-65
2022/01/18 00:12:32;;;;;;;3.93;1.90;;;0.80;99.90;;;;;;5073572;28;20231;-63
2022/01/18 00:15:19;;;;;;;3.47;2.03;;;0.80;99.90;;;;;;5073468;28;20195;-63
2022/01/18 00:17:54;;;;;;;4.10;2.40;;;0.70;99.90;;;;;;5073033;28;20283;-66
2022/01/18 00:20:31;;;;;;;3.20;2.03;;;0.70;99.90;;;;;;5073030;28;20192;-65
2022/01/18 00:22:57;;;;;;;2.67;1.90;;;0.60;99.90;;;;;;5072935;28;20208;-63
2022/01/18 00:25:26;;;;;;;1.90;1.80;;;0.60;99.90;;;;;;5073159;28;20287;-64
2022/01/18 00:27:52;;;;;;;1.90;1.80;;;0.50;99.90;;;;;;5073300;28;20205;-64
2022/01/18 00:30:39;;;;;;;4.43;2.20;;;0.50;99.90;;;;;;5072945;28;20209;-64
2022/01/18 00:33:16;;;;;;;2.10;1.73;;;0.40;99.90;;;;;;5073264;28;20624;-62
2022/01/18 00:35:45;;;;;;;2.67;1.80;;;0.40;99.90;;;;;;5073314;28;20646;-64
2022/01/18 00:38:16;;;;;;;3.37;1.80;;;0.20;99.90;;;;;;5073018;28;20569;-62
2022/01/18 00:40:45;;;;;;;1.73;1.50;;;0.20;99.90;;;;;;5072661;28;20247;-65
2022/01/18 00:43:11;;;;;;;2.27;1.80;;;0.10;99.90;;;;;;5072866;28;20196;-63
2022/01/18 00:45:38;;;;;;;3.07;1.90;;;0.10;99.90;;;;;;5072407;28;20204;-63
2022/01/18 00:48:06;;;;;;;2.73;1.63;;;0.00;99.90;;;;;;5072941;28;20207;-63
2022/01/18 00:50:33;;;;;;;5.43;1.80;;;-0.10;99.90;;;;;;5072432;28;20201;-61
2022/01/18 00:53:02;;;;;;;5.30;1.97;;;-0.30;99.90;;;;;;5072590;28;20700;-63
2022/01/18 00:55:34;;;;;;;10.73;2.23;;;-0.60;99.90;;;;;;5072389;28;20209;-63
2022/01/18 00:58:02;;;;;;;7.70;2.00;;;-0.90;99.90;;;;;;5072444;28;20193;-63
2022/01/18 01:00:29;;;;;;;2.70;2.00;;;-1.00;99.90;;;;;;5072388;28;20543;-62
2022/01/18 01:02:56;;;;;;;3.23;2.10;;;-1.10;99.90;;;;;;5072168;28;20231;-63
2022/01/18 01:05:22;;;;;;;5.73;2.47;;;-1.10;99.90;;;;;;5071763;28;20208;-62
2022/01/18 01:07:49;;;;;;;4.53;2.10;;;-1.20;99.90;;;;;;5072081;28;20212;-62
2022/01/18 01:10:16;;;;;;;2.27;1.80;;;-1.20;99.90;;;;;;5071594;28;20296;-63
2022/01/18 01:12:43;;;;;;;4.80;2.20;;;-1.30;99.90;;;;;;5072424;28;20294;-62
2022/01/18 01:15:13;;;;;;;3.37;1.83;;;-1.30;99.90;;;;;;5072117;28;20210;-62
2022/01/18 01:17:46;;;;;;;5.43;1.90;;;-1.40;99.90;;;;;;5072136;28;20232;-62
2022/01/18 01:37:13;;;;;;;3.07;1.60;;;-1.20;99.90;;;;;;5071306;28;20180;-62
2022/01/18 01:42:43;;;;;;;2.33;1.60;;;-1.10;99.90;;;;;;5071089;28;20235;-62
2022/01/18 01:45:11;;;;;;;2.10;1.50;;;-1.10;99.90;;;;;;5071420;28;20607;-62
2022/01/18 01:47:39;;;;;;;4.10;1.70;;;-1.00;99.90;;;;;;5071338;28;20201;-62
2022/01/18 01:50:07;;;;;;;2.37;1.70;;;-1.00;99.90;;;;;;5071730;28;20653;-61
2022/01/18 01:52:34;;;;;;;1.90;1.70;;;-1.10;99.90;;;;;;5071615;28;20646;-60
2022/01/18 01:55:01;;;;;;;4.57;1.80;;;-1.10;99.90;;;;;;5071819;28;20305;-61
2022/01/18 01:57:28;;;;;;;13.23;1.87;;;-1.20;99.90;;;;;;5071240;28;20204;-60
2022/01/18 01:59:57;;;;;;;4.67;1.50;;;-1.30;99.90;;;;;;5071877;28;20208;-62
2022/01/18 02:02:25;;;;;;;5.23;1.70;;;-1.40;99.90;;;;;;5071513;28;20239;-60
2022/01/18 02:04:53;;;;;;;1.90;1.77;;;-1.40;99.90;;;;;;5071344;28;20283;-62
2022/01/18 02:07:20;;;;;;;2.60;1.70;;;-1.40;99.90;;;;;;5071478;28;20208;-61
2022/01/18 02:09:46;;;;;;;1.60;1.50;;;-1.40;99.90;;;;;;5071578;28;20219;-62
2022/01/18 02:12:13;;;;;;;2.50;1.60;;;-1.40;99.90;;;;;;5071476;28;20268;-61
2022/01/18 02:14:41;;;;;;;1.87;1.70;;;-1.40;99.90;;;;;;5071345;28;20219;-61
2022/01/18 02:22:39;;;;;;;1.93;1.60;;;-1.50;99.90;;;;;;5071324;28;20231;-62
2022/01/18 02:25:06;;;;;;;2.87;1.60;;;-1.50;99.90;;;;;;5071405;28;20212;-61
2022/01/18 02:27:33;;;;;;;6.93;1.73;;;-1.50;99.90;;;;;;5071600;28;20205;-61
2022/01/18 02:30:00;;;;;;;2.10;1.60;;;-1.60;99.90;;;;;;5070917;28;20201;-62
2022/01/18 02:32:27;;;;;;;5.53;2.03;;;-1.70;99.90;;;;;;5071493;28;20577;-61
2022/01/18 02:34:53;;;;;;;3.17;1.77;;;-1.80;99.90;;;;;;5071440;28;20564;-61
2022/01/18 02:37:20;;;;;;;2.63;1.50;;;-1.80;99.90;;;;;;5073708;28;20200;-61
2022/01/18 02:39:48;;;;;;;2.27;1.53;;;-1.80;99.90;;;;;;5085523;28;20204;-61
2022/01/18 02:42:23;;;;;;;1.83;1.50;;;-1.80;99.90;;;;;;5075303;28;20595;-61
2022/01/18 02:44:50;;;;;;;1.57;1.47;;;-1.80;99.90;;;;;;5080326;28;20219;-62
2022/01/18 02:47:19;;;;;;;2.87;1.50;;;-1.80;99.90;;;;;;5095197;28;20207;-61
2022/01/18 02:49:47;;;;;;;1.63;1.53;;;-1.90;99.90;;;;;;5081436;28;20650;-61
2022/01/18 02:52:14;;;;;;;1.60;1.50;;;-1.80;99.90;;;;;;5074112;28;20189;-61
2022/01/18 02:54:42;;;;;;;1.50;1.40;;;-1.90;99.90;;;;;;5073988;28;20215;-61
2022/01/18 02:57:13;;;;;;;3.13;1.60;;;-2.00;99.90;;;;;;5063571;28;20201;-61
2022/01/18 02:59:47;;;;;;;1.53;1.43;;;-2.00;99.90;;;;;;5074589;28;20193;-61
2022/01/18 03:05:04;;;;;;;2.33;1.47;;;-2.10;99.90;;;;;;5074282;28;20177;-60
2022/01/18 03:07:31;;;;;;;2.10;1.60;;;-2.10;99.90;;;;;;5074500;28;20205;-62
2022/01/18 03:09:58;;;;;;;1.80;1.63;;;-2.10;99.90;;;;;;5074181;28;20212;-61
2022/01/18 03:12:27;;;;;;;4.57;1.77;;;-2.20;99.90;;;;;;5074611;28;20200;-60
2022/01/18 03:14:54;;;;;;;1.90;1.70;;;-2.30;99.90;;;;;;5074461;28;20653;-62
2022/01/18 03:17:21;;;;;;;2.60;1.50;;;-2.30;99.90;;;;;;5074497;28;20215;-60
2022/01/18 03:19:47;;;;;;;2.97;1.63;;;-2.30;99.90;;;;;;5074073;28;20200;-62
2022/01/18 03:22:14;;;;;;;5.23;2.13;;;-2.30;99.90;;;;;;5073597;28;20231;-61
2022/01/18 03:24:48;;;;;;;15.73;2.07;;;-2.30;99.90;;;;;;5074319;28;20714;-60
2022/01/18 03:30:06;;;;;;;4.70;1.90;;;-2.50;99.90;;;;;;5072265;28;20208;-60
2022/01/18 03:32:32;;;;;;;2.90;1.80;;;-2.60;99.90;;;;;;5072690;28;20629;-61
2022/01/18 03:34:59;;;;;;;4.30;2.00;;;-2.80;99.90;;;;;;5072546;28;20201;-61
2022/01/18 03:37:26;;;;;;;2.97;1.80;;;-2.80;99.90;;;;;;5094484;28;20204;-61
2022/01/18 03:39:53;;;;;;;2.63;1.90;;;-2.90;99.90;;;;;;5073949;28;20306;-61
2022/01/18 03:45:07;;;;;;;2.20;1.60;;;-2.90;99.90;;;;;;5085290;28;20196;-63
2022/01/18 03:47:35;;;;;;;2.03;1.73;;;-2.80;99.90;;;;;;5093834;28;20204;-61
2022/01/18 03:50:03;;;;;;;2.07;1.53;;;-2.70;99.90;;;;;;5074180;28;20207;-60
2022/01/18 03:52:30;;;;;;;2.63;1.73;;;-2.60;99.90;;;;;;5073132;28;20193;-61
2022/01/18 03:54:57;;;;;;;2.93;1.90;;;-2.60;99.90;;;;;;5073214;28;20197;-62
2022/01/18 03:57:24;;;;;;;1.87;1.77;;;-2.50;99.90;;;;;;5090449;28;20207;-61
2022/01/18 03:59:51;;;;;;;2.27;1.60;;;-2.50;99.90;;;;;;5089927;28;20213;-63
2022/01/18 04:02:19;;;;;;;9.83;1.90;;;-2.50;99.90;;;;;;5073068;28;20227;-61
2022/01/18 04:04:46;;;;;;;2.13;1.50;;;-2.50;99.90;;;;;;5072939;28;20203;-60
2022/01/18 04:07:13;;;;;;;5.03;1.70;;;-2.60;99.90;;;;;;5073093;28;20204;-60
2022/01/18 04:09:40;;;;;;;6.83;2.00;;;-2.60;99.90;;;;;;5073216;28;20557;-59
2022/01/18 04:12:08;;;;;;;3.50;1.70;;;-2.70;99.90;;;;;;5072864;28;20665;-60
2022/01/18 04:14:35;;;;;;;2.17;1.70;;;-2.80;99.90;;;;;;5073141;28;20208;-62
2022/01/18 04:17:09;;;;;;;2.10;1.70;;;-2.80;99.90;;;;;;5073189;28;20244;-61
2022/01/18 04:27:54;;;;;;;2.00;1.80;;;-2.60;99.90;;;;;;5072778;28;20223;-60
2022/01/18 04:30:22;;;;;;;2.97;1.60;;;-2.60;99.90;;;;;;5072951;28;20648;-60
2022/01/18 04:32:49;;;;;;;3.20;1.83;;;-2.50;99.90;;;;;;5072602;28;20205;-61
2022/01/18 04:35:17;;;;;;;2.20;1.70;;;-2.50;99.90;;;;;;5073037;28;20204;-61
2022/01/18 04:37:44;;;;;;;3.20;1.90;;;-2.50;99.90;;;;;;5079799;28;20207;-61
2022/01/18 04:40:15;;;;;;;2.50;1.70;;;-2.60;99.90;;;;;;5092935;28;20664;-62
2022/01/18 04:43:01;;;;;;;2.97;2.00;;;-2.50;99.90;;;;;;5092741;28;20235;-60
2022/01/18 04:48:27;;;;;;;4.00;2.10;;;-2.60;99.90;;;;;;5092673;28;20199;-61
2022/01/18 04:50:56;;;;;;;3.03;1.80;;;-2.60;99.90;;;;;;5092665;28;20656;-61
2022/01/18 04:53:23;;;;;;;3.20;2.10;;;-2.60;99.90;;;;;;5092695;28;20659;-62
2022/01/18 04:55:54;;;;;;;2.70;2.00;;;-2.70;99.90;;;;;;5092493;28;20200;-62
2022/01/18 04:58:22;;;;;;;4.17;1.90;;;-2.80;99.90;;;;;;5073484;28;20256;-60
2022/01/18 05:00:51;;;;;;;2.17;1.80;;;-2.80;99.90;;;;;;5071865;28;20193;-62
2022/01/18 05:03:18;;;;;;;2.47;1.97;;;-2.80;99.90;;;;;;5071198;28;20224;-62
2022/01/18 05:05:45;;;;;;;3.50;2.00;;;-2.80;99.90;;;;;;5071808;28;20196;-62
2022/01/18 05:08:14;;;;;;;2.10;1.73;;;-2.80;99.90;;;;;;5072276;28;20235;-61
2022/01/18 05:10:41;;;;;;;2.37;1.90;;;-2.70;99.90;;;;;;5072056;28;20261;-61
2022/01/18 05:13:18;;;;;;;3.40;2.03;;;-2.70;99.90;;;;;;5071927;28;20247;-60
2022/01/18 05:15:50;;;;;;;2.47;1.70;;;-2.70;99.90;;;;;;5071968;28;20220;-62
2022/01/18 05:21:16;;;;;;;2.10;1.60;;;-2.60;99.90;;;;;;5071780;28;20219;-62
2022/01/18 05:23:43;;;;;;;2.93;1.83;;;-2.60;99.90;;;;;;5071420;28;20213;-61
2022/01/18 05:26:10;;;;;;;2.10;1.73;;;-2.60;99.90;;;;;;5071748;28;20222;-61
2022/01/18 05:28:37;;;;;;;2.47;2.00;;;-2.50;99.90;;;;;;5071260;28;20555;-61
2022/01/18 05:31:04;;;;;;;2.40;2.03;;;-2.60;99.90;;;;;;5072038;28;20200;-61
2022/01/18 05:33:31;;;;;;;2.03;1.80;;;-2.60;99.90;;;;;;5071711;28;20204;-63
2022/01/18 05:35:57;;;;;;;2.80;2.00;;;-2.60;99.90;;;;;;5071581;28;20201;-62
2022/01/18 05:38:24;;;;;;;3.97;1.90;;;-2.50;99.90;;;;;;5072018;28;20629;-61
2022/01/18 05:40:52;;;;;;;2.23;2.00;;;-2.50;99.90;;;;;;5071355;28;20236;-60
2022/01/18 05:43:19;;;;;;;4.17;1.90;;;-2.50;99.90;;;;;;5071846;28;20711;-60
2022/01/18 05:45:46;;;;;;;3.23;2.00;;;-2.60;99.90;;;;;;5071557;28;20204;-60
2022/01/18 05:48:13;;;;;;;2.97;1.80;;;-2.50;99.90;;;;;;5071239;28;20201;-63
2022/01/18 05:50:40;;;;;;;2.93;1.97;;;-2.60;99.90;;;;;;5071225;28;20208;-62
2022/01/18 05:53:07;;;;;;;3.63;1.93;;;-2.60;99.90;;;;;;5070435;28;20197;-62
2022/01/18 05:55:34;;;;;;;2.57;1.90;;;-2.60;99.90;;;;;;5064138;28;20266;-62
2022/01/18 05:58:02;;;;;;;2.00;1.80;;;-2.60;99.90;;;;;;5070555;28;20221;-61
2022/01/18 06:00:30;;;;;;;5.90;2.00;;;-2.60;99.90;;;;;;5070638;28;20203;-63
2022/01/18 06:03:03;;;;;;;5.50;2.40;;;-2.60;99.90;;;;;;5070873;28;20224;-63
2022/01/18 06:08:14;;;;;;;4.33;2.23;;;-2.60;99.90;;;;;;5071389;28;20192;-60
2022/01/18 06:10:41;;;;;;;3.40;2.30;;;-2.70;99.90;;;;;;5071343;28;20241;-62
2022/01/18 06:13:09;;;;;;;2.30;2.10;;;-2.70;99.90;;;;;;5071413;28;20277;-62
2022/01/18 06:15:36;;;;;;;4.40;1.90;;;-2.70;99.90;;;;;;5074482;28;20211;-62
2022/01/18 06:18:03;;;;;;;2.80;2.00;;;-2.70;99.90;;;;;;5075637;28;20676;-61
2022/01/18 06:20:31;;;;;;;2.33;1.90;;;-2.80;99.90;;;;;;5075184;28;20208;-61
2022/01/18 06:22:57;;;;;;;4.03;1.93;;;-2.80;99.90;;;;;;5075081;28;20220;-61
2022/01/18 06:25:24;;;;;;;2.87;2.10;;;-2.80;99.90;;;;;;5075512;28;20204;-61
2022/01/18 06:27:53;;;;;;;2.50;2.20;;;-2.80;99.90;;;;;;5075345;28;20539;-61
2022/01/18 06:30:21;;;;;;;4.70;2.50;;;-2.80;99.90;;;;;;5075501;28;20216;-61
2022/01/18 06:32:48;;;;;;;8.47;2.40;;;-2.80;99.90;;;;;;5075100;28;20204;-60
2022/01/18 06:35:16;;;;;;;4.47;2.30;;;-2.80;99.90;;;;;;5075236;28;20200;-60
2022/01/18 06:37:43;;;;;;;2.20;2.00;;;-2.80;99.90;;;;;;5074823;28;20205;-61
2022/01/18 06:40:11;;;;;;;4.93;2.17;;;-2.80;99.90;;;;;;5055220;28;20205;-63
2022/01/18 06:42:38;;;;;;;5.67;2.03;;;-2.80;99.90;;;;;;5055029;28;20280;-62
2022/01/18 06:45:06;;;;;;;3.60;2.13;;;-2.80;99.90;;;;;;5059069;28;20201;-61
2022/01/18 06:47:34;;;;;;;3.70;2.00;;;-2.70;99.90;;;;;;5074681;28;20599;-62
2022/01/18 06:50:01;;;;;;;3.73;2.30;;;-2.70;99.90;;;;;;5074716;28;20223;-62
2022/01/18 06:52:27;;;;;;;3.30;2.23;;;-2.80;99.90;;;;;;5074041;28;20193;-62
2022/01/18 06:54:54;;;;;;;3.30;2.00;;;-2.80;99.90;;;;;;5074819;28;20201;-60
2022/01/18 06:57:21;;;;;;;3.03;2.20;;;-2.70;99.90;;;;;;5074581;28;20208;-65
2022/01/18 06:59:48;;;;;;;2.37;2.10;;;-2.70;99.90;;;;;;5074751;28;20571;-63
2022/01/18 07:02:15;;;;;;;2.20;1.97;;;-2.70;99.90;;;;;;5074709;28;20295;-63
2022/01/18 07:04:43;;;;;;;3.87;2.27;;;-2.70;99.90;;;;;;5074085;28;20685;-61
2022/01/18 07:07:09;;;;;;;3.20;2.20;;;-2.60;99.90;;;;;;5074919;28;20220;-62
2022/01/18 07:09:36;;;;;;;4.30;2.00;;;-2.60;99.90;;;;;;5074461;28;20205;-62
2022/01/18 07:12:08;;;;;;;4.80;2.10;;;-2.60;99.90;;;;;;5074831;28;20209;-62
2022/01/18 07:14:35;;;;;;;2.90;1.87;;;-2.50;99.90;;;;;;5073572;28;20242;-63
2022/01/18 07:17:02;;;;;;;4.53;1.90;;;-2.50;99.90;;;;;;5074402;28;20213;-64
2022/01/18 07:19:31;;;;;;;7.23;2.10;;;-2.50;99.90;;;;;;5073942;28;20209;-62
2022/01/18 07:21:59;;;;;;;2.67;1.97;;;-2.50;99.90;;;;;;5073982;28;20285;-64
2022/01/18 07:24:37;;;;;;;2.90;2.00;;;-2.50;99.90;;;;;;5074499;28;20704;-62
2022/01/18 07:27:05;;;;;;;2.43;1.90;;;-2.40;99.90;;;;;;5073543;28;20283;-64
2022/01/18 07:29:32;;;;;;;5.33;2.10;;;-2.40;99.90;;;;;;5074460;28;20215;-63
2022/01/18 07:31:59;;;;;;;3.20;1.90;;;-2.40;99.90;;;;;;5073842;28;20201;-62
2022/01/18 07:34:26;;;;;;;7.27;3.03;;;-2.40;99.90;;;;;;5073580;28;20203;-62
2022/01/18 07:36:53;;;;;;;3.67;2.00;;;-2.40;99.90;;;;;;5074201;28;20213;-64
2022/01/18 07:39:21;;;;;;;2.13;1.90;;;-2.40;99.90;;;;;;5074159;28;20205;-63
2022/01/18 07:41:48;;;;;;;2.13;1.90;;;-2.50;99.90;;;;;;5074030;28;20236;-63
2022/01/18 07:44:15;;;;;;;2.60;1.93;;;-2.50;99.90;;;;;;5074339;28;20228;-63
2022/01/18 07:46:42;;;;;;;3.03;2.17;;;-2.50;99.90;;;;;;5074205;28;20212;-63
2022/01/18 07:49:08;;;;;;;3.33;2.07;;;-2.50;99.90;;;;;;5073582;28;20204;-63
2022/01/18 07:51:35;;;;;;;2.37;1.90;;;-2.50;99.90;;;;;;5074000;28;20649;-64
2022/01/18 07:54:02;;;;;;;4.17;1.97;;;-2.50;99.90;;;;;;5073764;28;20204;-63
2022/01/18 07:56:30;;;;;;;6.53;2.50;;;-2.40;99.90;;;;;;5073905;28;20208;-63
2022/01/18 07:58:57;;;;;;;2.93;2.00;;;-2.40;99.90;;;;;;5073564;28;20209;-62
2022/01/18 08:01:24;;;;;;;2.77;1.97;;;-2.30;99.90;;;;;;5073533;28;20211;-62
2022/01/18 08:03:51;;;;;;;2.73;2.20;;;-2.30;99.90;;;;;;5073600;28;20326;-65
2022/01/18 08:06:17;;;;;;;2.77;1.80;;;-2.30;99.90;;;;;;5073628;28;20220;-62
2022/01/18 08:08:44;;;;;;;3.03;1.80;;;-2.20;99.90;;;;;;5072860;28;20196;-63
2022/01/18 08:11:11;;;;;;;2.37;2.13;;;-2.20;99.90;;;;;;5073512;28;20585;-63
2022/01/18 08:13:41;;;;;;;3.57;2.37;;;-2.20;99.90;;;;;;5073610;28;20656;-62
2022/01/18 08:16:33;;;;;;;3.17;2.10;;;-2.10;99.90;;;;;;5073795;28;20205;-63
2022/01/18 08:19:02;;;;;;;2.47;1.97;;;-2.10;99.90;;;;;;5053467;28;20225;-61
2022/01/18 08:21:28;;;;;;;4.00;2.03;;;-2.00;99.90;;;;;;5053540;28;20665;-62
2022/01/18 08:23:55;;;;;;;2.93;2.00;;;-2.10;99.90;;;;;;5055152;28;20225;-63
2022/01/18 08:26:22;;;;;;;3.80;2.10;;;-2.20;99.90;;;;;;5073178;28;20688;-64
2022/01/18 08:28:50;;;;;;;4.27;2.20;;;-2.10;99.90;;;;;;5073437;28;20283;-62
2022/01/18 08:31:18;;;;;;;3.00;2.17;;;-2.00;99.90;;;;;;5073151;28;20699;-63
2022/01/18 08:33:45;;;;;;;3.93;2.20;;;-2.00;99.90;;;;;;5072849;28;20205;-62
2022/01/18 08:36:12;;;;;;;6.33;2.30;;;-2.00;99.90;;;;;;5072782;28;20308;-62
2022/01/18 08:38:40;;;;;;;2.93;2.00;;;-1.90;99.90;;;;;;5072816;28;20200;-64
2022/01/18 08:41:08;;;;;;;8.27;2.20;;;-1.90;99.90;;;;;;5072675;28;20232;-62
2022/01/18 08:43:36;;;;;;;2.53;2.00;;;-1.90;99.90;;;;;;5072754;28;20265;-64
2022/01/18 08:46:04;;;;;;;4.00;2.23;;;-1.90;99.90;;;;;;5073237;28;20280;-63
2022/01/18 08:48:31;;;;;;;3.00;2.10;;;-1.90;99.90;;;;;;5072617;28;20311;-62
2022/01/18 08:51:00;;;;;;;4.47;1.93;;;-1.80;99.90;;;;;;5072927;28;20245;-62
2022/01/18 08:53:27;;;;;;;4.13;2.13;;;-1.80;99.90;;;;;;5072803;28;20216;-61
2022/01/18 08:55:54;;;;;;;4.20;1.90;;;-1.90;99.90;;;;;;5072671;28;20287;-63
2022/01/18 08:58:22;;;;;;;3.57;2.10;;;-1.90;99.90;;;;;;5072764;28;20707;-63
2022/01/18 09:00:48;;;;;;;4.90;2.40;;;-1.90;99.90;;;;;;5072603;28;20209;-64
2022/01/18 09:03:17;;;;;;;3.30;2.20;;;-1.90;99.90;;;;;;5072661;28;20211;-63
2022/01/18 09:05:45;;;;;;;5.73;2.53;;;-1.90;99.90;;;;;;5072645;28;20228;-63
2022/01/18 09:08:13;;;;;;;3.13;2.00;;;-1.90;99.90;;;;;;5072716;28;20288;-63
2022/01/18 09:10:40;;;;;;;6.67;2.40;;;-2.00;99.90;;;;;;5072671;28;20204;-66
2022/01/18 09:13:08;;;;;;;4.03;2.37;;;-1.90;99.90;;;;;;5072501;28;20680;-62
2022/01/18 09:15:35;;;;;;;3.07;2.17;;;-1.90;99.90;;;;;;5072335;28;20667;-63
2022/01/18 19:45:58;;;;;;;4.83;2.87;;;-3.00;99.90;;;;;;4906452;29;20239;-67
2022/01/18 19:48:25;;;;;;;9.47;3.47;;;-2.90;99.90;;;;;;4899242;29;20647;-65
2022/01/18 19:50:52;;;;;;;5.00;2.87;;;-2.90;99.90;;;;;;4899153;29;20207;-66
2022/01/18 19:53:20;;;;;;;5.23;2.60;;;-2.90;99.90;;;;;;4899308;29;20210;-66
2022/01/18 19:55:48;;;;;;;5.73;3.10;;;-3.00;99.90;;;;;;4899118;29;20231;-67
2022/01/18 19:58:16;;;;;;;6.47;2.93;;;-3.00;99.90;;;;;;4898696;29;20246;-66
2022/01/18 20:00:44;;;;;;;6.43;2.90;;;-3.00;99.90;;;;;;4898962;29;20218;-67
2022/01/18 20:03:14;;;;;;;4.90;3.03;;;-3.00;99.90;;;;;;4899085;29;20206;-67
2022/01/18 20:05:41;;;;;;;6.20;3.23;;;-3.00;99.90;;;;;;4899093;29;20239;-67
2022/01/18 20:08:11;;;;;;;6.63;3.20;;;-3.00;99.90;;;;;;4898643;29;20219;-67
2022/01/18 20:10:39;;;;;;;5.27;3.23;;;-3.00;99.90;;;;;;4899149;29;20242;-67
2022/01/18 20:13:06;;;;;;;3.43;2.53;;;-3.00;99.90;;;;;;4898324;29;20768;-64
2022/01/18 20:15:33;;;;;;;5.73;3.10;;;-3.00;99.90;;;;;;4898993;29;20312;-67
2022/01/18 20:18:00;;;;;;;6.03;3.37;;;-3.00;99.90;;;;;;4898601;29;20546;-67
2022/01/18 20:20:28;;;;;;;5.70;3.23;;;-3.00;99.90;;;;;;4897922;29;20590;-67
2022/01/18 20:22:55;;;;;;;5.00;2.90;;;-3.00;99.90;;;;;;4898612;29;20691;-68
2022/01/18 20:25:22;;;;;;;5.70;2.90;;;-3.00;99.90;;;;;;4898691;29;20230;-65
2022/01/18 20:27:49;;;;;;;5.00;2.90;;;-3.00;99.90;;;;;;4898518;29;20301;-67
2022/01/18 20:30:18;;;;;;;4.73;2.80;;;-3.10;99.90;;;;;;4897974;29;20321;-66
2022/01/18 20:32:47;;;;;;;5.60;2.93;;;-3.10;99.90;;;;;;4898278;29;20324;-65
2022/01/18 20:35:17;;;;;;;4.23;2.53;;;-3.10;99.90;;;;;;4898352;29;20230;-66
2022/01/18 20:37:47;;;;;;;5.43;2.70;;;-3.10;99.90;;;;;;4897938;29;20202;-67
2022/01/18 20:40:17;;;;;;;8.30;2.90;;;-3.10;99.90;;;;;;4897577;29;20213;-67
2022/01/18 20:45:31;;;;;;;7.70;3.10;;;-3.20;99.90;;;;;;4905257;29;20244;-67
2022/01/18 20:48:00;;;;;;;5.73;2.67;;;-3.20;99.90;;;;;;4916956;29;20241;-68
2022/01/18 20:50:27;;;;;;;6.27;3.03;;;-3.20;99.90;;;;;;4917026;29;20217;-64
2022/01/18 20:52:55;;;;;;;4.07;2.93;;;-3.20;99.90;;;;;;4916428;29;20237;-66
2022/01/18 20:55:22;;;;;;;7.90;3.17;;;-3.30;99.90;;;;;;4909462;29;20221;-66
2022/01/18 21:00:46;;;;;;;4.10;2.60;;;-3.30;99.90;;;;;;4909721;29;20205;-67
2022/01/18 21:03:18;;;;;;;5.50;2.93;;;-3.40;99.90;;;;;;4874887;29;20679;-67
2022/01/18 21:05:45;;;;;;;6.37;3.00;;;-3.40;99.90;;;;;;4902258;29;20218;-66
2022/01/18 21:08:14;;;;;;;7.40;3.43;;;-3.40;99.90;;;;;;4911620;29;20214;-67
2022/01/18 21:10:41;;;;;;;5.07;3.10;;;-3.40;99.90;;;;;;4911031;29;20582;-67
2022/01/18 21:13:11;;;;;;;5.53;3.00;;;-3.50;99.90;;;;;;4916072;29;20202;-66
2022/01/18 21:15:39;;;;;;;6.40;3.23;;;-3.50;99.90;;;;;;4914461;29;20198;-66
2022/01/18 21:18:06;;;;;;;5.07;3.00;;;-3.50;99.90;;;;;;4916561;29;20206;-66
2022/01/18 21:20:33;;;;;;;5.70;2.70;;;-3.50;99.90;;;;;;4916466;29;20678;-65
2022/01/18 21:23:00;;;;;;;4.60;2.90;;;-3.50;99.90;;;;;;4916280;29;20210;-66
2022/01/18 21:25:28;;;;;;;5.90;3.00;;;-3.50;99.90;;;;;;4916151;29;20230;-66
2022/01/18 21:27:57;;;;;;;5.47;2.70;;;-3.50;99.90;;;;;;4905327;29;20214;-65
2022/01/18 21:30:24;;;;;;;6.87;3.40;;;-3.50;99.90;;;;;;4916020;29;20727;-66
2022/01/18 21:32:51;;;;;;;6.47;3.10;;;-3.50;99.90;;;;;;4909731;29;20199;-66
2022/01/18 21:35:18;;;;;;;7.23;3.03;;;-3.60;99.90;;;;;;4897108;29;20214;-67
2022/01/18 21:37:45;;;;;;;5.23;2.90;;;-3.60;99.90;;;;;;4897051;29;20564;-68
2022/01/18 21:40:13;;;;;;;7.20;3.20;;;-3.60;99.90;;;;;;4896913;29;20211;-67
2022/01/18 21:42:41;;;;;;;5.63;3.07;;;-3.60;99.90;;;;;;4913258;29;20206;-66
2022/01/18 21:45:08;;;;;;;5.40;2.90;;;-3.60;99.90;;;;;;4915406;29;20241;-65
2022/01/18 21:47:35;;;;;;;7.20;2.90;;;-3.60;99.90;;;;;;4915982;29;20198;-68
2022/01/18 21:50:06;;;;;;;6.50;2.97;;;-3.70;99.90;;;;;;4915755;29;20221;-67
2022/01/18 21:52:33;;;;;;;6.53;2.83;;;-3.70;99.90;;;;;;4915874;29;20228;-67
2022/01/18 21:55:00;;;;;;;6.47;3.30;;;-3.70;99.90;;;;;;4916122;29;20714;-65
2022/01/18 21:57:27;;;;;;;4.53;2.90;;;-3.70;99.90;;;;;;4915609;29;20218;-66
2022/01/18 21:59:55;;;;;;;6.17;2.93;;;-3.70;99.90;;;;;;4915662;29;20209;-67
2022/01/18 22:02:21;;;;;;;4.87;2.80;;;-3.70;99.90;;;;;;4915816;29;20536;-66
2022/01/18 22:04:49;;;;;;;4.47;2.63;;;-3.70;99.90;;;;;;4915394;29;20325;-66
2022/01/18 22:07:16;;;;;;;4.77;3.10;;;-3.70;99.90;;;;;;4915751;29;20206;-65
2022/01/18 22:09:43;;;;;;;5.53;2.90;;;-3.70;99.90;;;;;;4915721;29;20232;-65
2022/01/18 22:12:10;;;;;;;4.23;2.80;;;-3.70;99.90;;;;;;4915663;29;20277;-63
2022/01/18 22:14:37;;;;;;;4.60;3.03;;;-3.80;99.90;;;;;;4915441;29;20265;-67
2022/01/18 22:17:05;;;;;;;5.23;3.20;;;-3.80;99.90;;;;;;4915683;29;20214;-65
2022/01/18 22:19:33;;;;;;;5.10;3.00;;;-3.80;99.90;;;;;;4914872;29;20293;-65
2022/01/18 22:22:00;;;;;;;5.00;2.90;;;-3.80;99.90;;;;;;4905537;29;20202;-64
2022/01/18 22:24:27;;;;;;;4.57;2.80;;;-3.80;99.90;;;;;;4896682;29;20560;-65
2022/01/18 22:26:54;;;;;;;5.73;3.10;;;-3.90;99.90;;;;;;4896444;29;20227;-65
2022/01/18 22:29:21;;;;;;;7.27;3.33;;;-3.90;99.90;;;;;;4914706;29;20207;-66
2022/01/18 22:31:48;;;;;;;7.37;3.30;;;-3.90;99.90;;;;;;4915456;29;20213;-66
2022/01/18 22:34:16;;;;;;;5.60;3.03;;;-3.90;99.90;;;;;;4915671;29;20210;-66
2022/01/18 22:36:43;;;;;;;4.70;2.80;;;-3.90;99.90;;;;;;4915298;29;20210;-66
2022/01/18 22:39:09;;;;;;;6.53;3.30;;;-3.90;99.90;;;;;;4915538;29;20278;-66
2022/01/18 22:44:20;;;;;;;4.50;2.63;;;-3.90;99.90;;;;;;4915183;29;20234;-66
2022/01/18 22:46:47;;;;;;;5.77;3.00;;;-3.90;99.90;;;;;;4914715;29;20241;-67
2022/01/18 22:49:15;;;;;;;7.67;3.20;;;-3.90;99.90;;;;;;4905020;29;20214;-64
2022/01/18 22:51:42;;;;;;;6.40;3.03;;;-3.90;99.90;;;;;;4909411;29;20206;-67
2022/01/18 22:54:09;;;;;;;4.77;3.00;;;-3.90;99.90;;;;;;4928023;29;20229;-66
2022/01/18 22:56:36;;;;;;;5.70;3.20;;;-4.00;99.90;;;;;;4930024;29;20202;-63
2022/01/18 22:59:03;;;;;;;6.57;3.20;;;-4.00;99.90;;;;;;4919149;29;20209;-64
2022/01/18 23:01:31;;;;;;;5.20;3.23;;;-4.00;99.90;;;;;;4918688;29;20214;-65
2022/01/18 23:03:59;;;;;;;5.73;3.00;;;-4.00;99.90;;;;;;4918942;29;20206;-65
2022/01/18 23:06:28;;;;;;;5.23;2.83;;;-4.00;99.90;;;;;;4918488;29;20639;-66
2022/01/18 23:08:55;;;;;;;4.43;2.83;;;-4.00;99.90;;;;;;4918736;29;20216;-66
2022/01/18 23:11:22;;;;;;;5.63;3.00;;;-4.10;99.90;;;;;;4918518;29;20210;-66
2022/01/18 23:13:49;;;;;;;6.77;2.97;;;-4.10;99.90;;;;;;4918662;29;20300;-69
2022/01/18 23:16:16;;;;;;;4.80;3.00;;;-4.10;99.90;;;;;;4910780;29;20210;-65
2022/01/18 23:18:43;;;;;;;4.63;3.20;;;-4.10;99.90;;;;;;4899847;29;20211;-65
2022/01/18 23:21:10;;;;;;;4.43;3.00;;;-4.10;99.90;;;;;;4903220;29;20258;-67
2022/01/18 23:23:38;;;;;;;4.43;2.87;;;-4.10;99.90;;;;;;4918257;29;20206;-66
2022/01/18 23:26:06;;;;;;;6.13;2.97;;;-4.20;99.90;;;;;;4929345;29;20221;-64
2022/01/18 23:28:33;;;;;;;7.57;3.40;;;-4.10;99.90;;;;;;4937479;29;20584;-66
2022/01/18 23:31:00;;;;;;;5.50;3.10;;;-4.10;99.90;;;;;;4937541;29;20681;-66
2022/01/18 23:33:27;;;;;;;6.03;3.17;;;-4.20;99.90;;;;;;4930416;29;20207;-66
2022/01/18 23:35:59;;;;;;;4.37;2.97;;;-4.20;99.90;;;;;;4912785;29;20230;-65
2022/01/18 23:38:30;;;;;;;5.40;3.13;;;-4.20;99.90;;;;;;4905014;29;20803;-67
2022/01/18 23:43:42;;;;;;;6.27;3.17;;;-4.20;99.90;;;;;;4918229;29;20327;-66
2022/01/18 23:46:10;;;;;;;5.13;3.30;;;-4.30;99.90;;;;;;4917794;29;20241;-69
2022/01/18 23:48:37;;;;;;;5.27;2.97;;;-4.30;99.90;;;;;;4918186;29;20210;-66
2022/01/18 23:51:06;;;;;;;5.73;2.80;;;-4.30;99.90;;;;;;4918102;29;20206;-65
2022/01/18 23:53:33;;;;;;;5.37;3.07;;;-4.30;99.90;;;;;;4913486;29;20239;-65
2022/01/18 23:56:02;;;;;;;7.70;3.00;;;-4.30;99.90;;;;;;4899678;29;20218;-65
2022/01/18 23:58:28;;;;;;;8.37;3.27;;;-4.30;99.90;;;;;;4898906;29;20211;-66
